sensor_id;sensor_type;location;lat;lon;timestamp;P1;durP1;ratioP1;P2;durP2;ratioP2
13731;SDS011;6937;56.096;12.664;2023-07-16T00:01:42;3.95;;;2.20;;
13731;SDS011;6937;56.096;12.664;2023-07-16T00:04:07;3.85;;;2.50;;
13731;SDS011;6937;56.096;12.664;2023-07-16T00:06:32;3.30;;;2.25;;
13731;SDS011;6937;56.096;12.664;2023-07-16T00:08:59;6.63;;;2.15;;
13731;SDS011;6937;56.096;12.664;2023-07-16T00:11:24;3.40;;;2.40;;
13731;SDS011;6937;56.096;12.664;2023-07-16T00:13:49;4.05;;;2.20;;
13731;SDS011;6937;56.096;12.664;2023-07-16T00:16:15;2.85;;;2.08;;
13731;SDS011;6937;56.096;12.664;2023-07-16T00:18:46;5.65;;;2.55;;
13731;SDS011;6937;56.096;12.664;2023-07-16T00:21:12;4.00;;;2.50;;
13731;SDS011;6937;56.096;12.664;2023-07-16T00:23:37;3.72;;;2.30;;
13731;SDS011;6937;56.096;12.664;2023-07-16T00:26:03;4.20;;;2.40;;
13731;SDS011;6937;56.096;12.664;2023-07-16T00:28:29;5.20;;;2.40;;
13731;SDS011;6937;56.096;12.664;2023-07-16T00:30:54;3.10;;;2.30;;
13731;SDS011;6937;56.096;12.664;2023-07-16T00:33:20;4.20;;;2.20;;
13731;SDS011;6937;56.096;12.664;2023-07-16T00:35:48;3.67;;;2.10;;
13731;SDS011;6937;56.096;12.664;2023-07-16T00:38:16;4.78;;;2.55;;
13731;SDS011;6937;56.096;12.664;2023-07-16T00:40:42;2.42;;;2.17;;
13731;SDS011;6937;56.096;12.664;2023-07-16T00:43:07;4.18;;;2.70;;
13731;SDS011;6937;56.096;12.664;2023-07-16T00:45:33;2.58;;;2.13;;
13731;SDS011;6937;56.096;12.664;2023-07-16T00:47:58;3.67;;;2.35;;
13731;SDS011;6937;56.096;12.664;2023-07-16T00:50:24;4.93;;;2.70;;
13731;SDS011;6937;56.096;12.664;2023-07-16T00:52:49;5.13;;;2.50;;
13731;SDS011;6937;56.096;12.664;2023-07-16T00:55:15;4.57;;;2.65;;
13731;SDS011;6937;56.096;12.664;2023-07-16T00:57:41;4.65;;;2.88;;
13731;SDS011;6937;56.096;12.664;2023-07-16T01:00:06;3.03;;;2.55;;
13731;SDS011;6937;56.096;12.664;2023-07-16T01:02:32;4.50;;;2.78;;
13731;SDS011;6937;56.096;12.664;2023-07-16T01:04:58;5.13;;;2.70;;
13731;SDS011;6937;56.096;12.664;2023-07-16T01:07:24;4.45;;;2.45;;
13731;SDS011;6937;56.096;12.664;2023-07-16T01:09:51;5.40;;;2.78;;
13731;SDS011;6937;56.096;12.664;2023-07-16T01:12:20;4.22;;;2.67;;
13731;SDS011;6937;56.096;12.664;2023-07-16T01:14:47;3.63;;;2.50;;
13731;SDS011;6937;56.096;12.664;2023-07-16T01:17:13;3.30;;;2.50;;
13731;SDS011;6937;56.096;12.664;2023-07-16T01:19:38;3.10;;;2.80;;
13731;SDS011;6937;56.096;12.664;2023-07-16T01:24:48;5.72;;;3.33;;
13731;SDS011;6937;56.096;12.664;2023-07-16T01:30:21;5.15;;;3.13;;
13731;SDS011;6937;56.096;12.664;2023-07-16T01:32:48;5.95;;;3.40;;
13731;SDS011;6937;56.096;12.664;2023-07-16T01:35:15;8.55;;;4.00;;
13731;SDS011;6937;56.096;12.664;2023-07-16T01:37:41;9.35;;;4.35;;
13731;SDS011;6937;56.096;12.664;2023-07-16T01:40:08;11.45;;;3.88;;
13731;SDS011;6937;56.096;12.664;2023-07-16T01:42:34;4.40;;;3.42;;
13731;SDS011;6937;56.096;12.664;2023-07-16T01:44:59;6.95;;;2.70;;
13731;SDS011;6937;56.096;12.664;2023-07-16T01:49:53;6.15;;;2.60;;
13731;SDS011;6937;56.096;12.664;2023-07-16T01:52:18;5.32;;;2.70;;
13731;SDS011;6937;56.096;12.664;2023-07-16T01:54:44;3.63;;;2.70;;
13731;SDS011;6937;56.096;12.664;2023-07-16T01:57:09;3.85;;;2.50;;
13731;SDS011;6937;56.096;12.664;2023-07-16T01:59:34;4.95;;;2.40;;
13731;SDS011;6937;56.096;12.664;2023-07-16T02:02:00;2.80;;;2.42;;
13731;SDS011;6937;56.096;12.664;2023-07-16T02:04:25;2.50;;;2.30;;
13731;SDS011;6937;56.096;12.664;2023-07-16T02:06:50;3.30;;;2.40;;
13731;SDS011;6937;56.096;12.664;2023-07-16T02:09:16;3.83;;;2.70;;
13731;SDS011;6937;56.096;12.664;2023-07-16T02:11:41;4.18;;;2.58;;
13731;SDS011;6937;56.096;12.664;2023-07-16T02:14:07;3.38;;;2.80;;
13731;SDS011;6937;56.096;12.664;2023-07-16T02:16:32;3.08;;;2.80;;
13731;SDS011;6937;56.096;12.664;2023-07-16T02:18:57;4.45;;;2.50;;
13731;SDS011;6937;56.096;12.664;2023-07-16T02:21:23;2.42;;;2.17;;
13731;SDS011;6937;56.096;12.664;2023-07-16T02:23:48;3.05;;;2.15;;
13731;SDS011;6937;56.096;12.664;2023-07-16T02:26:13;4.53;;;2.33;;
13731;SDS011;6937;56.096;12.664;2023-07-16T02:28:39;4.38;;;2.00;;
13731;SDS011;6937;56.096;12.664;2023-07-16T02:31:04;2.63;;;1.98;;
13731;SDS011;6937;56.096;12.664;2023-07-16T02:33:30;3.08;;;1.67;;
13731;SDS011;6937;56.096;12.664;2023-07-16T02:35:55;1.80;;;1.40;;
13731;SDS011;6937;56.096;12.664;2023-07-16T02:38:21;2.13;;;1.20;;
13731;SDS011;6937;56.096;12.664;2023-07-16T02:40:46;2.03;;;1.33;;
13731;SDS011;6937;56.096;12.664;2023-07-16T02:43:13;3.20;;;1.60;;
13731;SDS011;6937;56.096;12.664;2023-07-16T02:45:39;4.50;;;1.85;;
13731;SDS011;6937;56.096;12.664;2023-07-16T02:48:04;4.13;;;1.50;;
13731;SDS011;6937;56.096;12.664;2023-07-16T02:50:34;1.58;;;1.10;;
13731;SDS011;6937;56.096;12.664;2023-07-16T02:53:01;2.92;;;1.27;;
13731;SDS011;6937;56.096;12.664;2023-07-16T02:55:27;2.28;;;1.10;;
13731;SDS011;6937;56.096;12.664;2023-07-16T02:57:52;1.80;;;1.15;;
13731;SDS011;6937;56.096;12.664;2023-07-16T03:00:17;3.42;;;1.10;;
13731;SDS011;6937;56.096;12.664;2023-07-16T03:02:43;1.73;;;1.38;;
13731;SDS011;6937;56.096;12.664;2023-07-16T03:05:08;1.10;;;0.88;;
13731;SDS011;6937;56.096;12.664;2023-07-16T03:07:33;2.97;;;1.17;;
13731;SDS011;6937;56.096;12.664;2023-07-16T03:09:59;2.47;;;1.27;;
13731;SDS011;6937;56.096;12.664;2023-07-16T03:12:25;1.23;;;1.00;;
13731;SDS011;6937;56.096;12.664;2023-07-16T03:14:50;1.45;;;1.10;;
13731;SDS011;6937;56.096;12.664;2023-07-16T03:17:19;3.08;;;1.20;;
13731;SDS011;6937;56.096;12.664;2023-07-16T03:19:44;1.90;;;1.27;;
13731;SDS011;6937;56.096;12.664;2023-07-16T03:22:10;2.58;;;1.35;;
13731;SDS011;6937;56.096;12.664;2023-07-16T03:24:35;2.15;;;1.20;;
13731;SDS011;6937;56.096;12.664;2023-07-16T03:27:00;1.20;;;1.10;;
13731;SDS011;6937;56.096;12.664;2023-07-16T03:29:25;2.40;;;1.20;;
13731;SDS011;6937;56.096;12.664;2023-07-16T03:31:51;4.07;;;1.20;;
13731;SDS011;6937;56.096;12.664;2023-07-16T03:34:16;1.73;;;1.10;;
13731;SDS011;6937;56.096;12.664;2023-07-16T03:36:41;2.53;;;1.10;;
13731;SDS011;6937;56.096;12.664;2023-07-16T03:39:07;1.73;;;1.10;;
13731;SDS011;6937;56.096;12.664;2023-07-16T03:41:32;2.10;;;1.20;;
13731;SDS011;6937;56.096;12.664;2023-07-16T03:43:57;1.77;;;1.15;;
13731;SDS011;6937;56.096;12.664;2023-07-16T03:46:23;1.63;;;1.00;;
13731;SDS011;6937;56.096;12.664;2023-07-16T03:48:48;2.70;;;1.30;;
13731;SDS011;6937;56.096;12.664;2023-07-16T03:51:13;2.83;;;0.98;;
13731;SDS011;6937;56.096;12.664;2023-07-16T03:53:39;1.40;;;1.10;;
13731;SDS011;6937;56.096;12.664;2023-07-16T03:56:04;1.13;;;1.00;;
13731;SDS011;6937;56.096;12.664;2023-07-16T03:58:30;2.22;;;1.15;;
13731;SDS011;6937;56.096;12.664;2023-07-16T04:00:55;2.33;;;1.13;;
13731;SDS011;6937;56.096;12.664;2023-07-16T04:03:20;2.45;;;1.10;;
13731;SDS011;6937;56.096;12.664;2023-07-16T04:05:46;1.63;;;1.15;;
13731;SDS011;6937;56.096;12.664;2023-07-16T04:08:12;1.58;;;0.90;;
13731;SDS011;6937;56.096;12.664;2023-07-16T04:10:37;1.67;;;0.88;;
13731;SDS011;6937;56.096;12.664;2023-07-16T04:13:02;1.60;;;1.10;;
13731;SDS011;6937;56.096;12.664;2023-07-16T04:15:28;1.20;;;1.02;;
13731;SDS011;6937;56.096;12.664;2023-07-16T04:17:53;1.63;;;0.85;;
13731;SDS011;6937;56.096;12.664;2023-07-16T04:20:19;1.15;;;0.90;;
13731;SDS011;6937;56.096;12.664;2023-07-16T04:22:44;1.92;;;1.10;;
13731;SDS011;6937;56.096;12.664;2023-07-16T04:25:09;0.80;;;0.80;;
13731;SDS011;6937;56.096;12.664;2023-07-16T04:27:35;1.92;;;1.15;;
13731;SDS011;6937;56.096;12.664;2023-07-16T04:30:01;2.30;;;1.10;;
13731;SDS011;6937;56.096;12.664;2023-07-16T04:32:26;2.22;;;1.02;;
13731;SDS011;6937;56.096;12.664;2023-07-16T04:34:51;1.77;;;1.00;;
13731;SDS011;6937;56.096;12.664;2023-07-16T04:37:17;4.10;;;1.48;;
13731;SDS011;6937;56.096;12.664;2023-07-16T04:39:42;2.90;;;1.35;;
13731;SDS011;6937;56.096;12.664;2023-07-16T04:42:07;4.78;;;1.65;;
13731;SDS011;6937;56.096;12.664;2023-07-16T04:44:33;4.78;;;1.50;;
13731;SDS011;6937;56.096;12.664;2023-07-16T04:46:58;3.88;;;1.42;;
13731;SDS011;6937;56.096;12.664;2023-07-16T04:49:23;3.75;;;1.42;;
13731;SDS011;6937;56.096;12.664;2023-07-16T04:51:49;2.97;;;1.48;;
13731;SDS011;6937;56.096;12.664;2023-07-16T04:54:14;2.45;;;1.35;;
13731;SDS011;6937;56.096;12.664;2023-07-16T04:56:39;2.20;;;1.30;;
13731;SDS011;6937;56.096;12.664;2023-07-16T04:59:05;1.58;;;1.40;;
13731;SDS011;6937;56.096;12.664;2023-07-16T05:01:30;2.05;;;1.40;;
13731;SDS011;6937;56.096;12.664;2023-07-16T05:03:55;3.30;;;1.42;;
13731;SDS011;6937;56.096;12.664;2023-07-16T05:06:21;3.22;;;1.27;;
13731;SDS011;6937;56.096;12.664;2023-07-16T05:08:46;3.47;;;1.48;;
13731;SDS011;6937;56.096;12.664;2023-07-16T05:11:12;4.68;;;1.90;;
13731;SDS011;6937;56.096;12.664;2023-07-16T05:13:37;2.13;;;1.20;;
13731;SDS011;6937;56.096;12.664;2023-07-16T05:16:02;3.55;;;1.30;;
13731;SDS011;6937;56.096;12.664;2023-07-16T05:18:28;2.30;;;1.40;;
13731;SDS011;6937;56.096;12.664;2023-07-16T05:20:53;2.80;;;1.60;;
13731;SDS011;6937;56.096;12.664;2023-07-16T05:23:19;2.63;;;1.60;;
13731;SDS011;6937;56.096;12.664;2023-07-16T05:25:47;3.95;;;1.45;;
13731;SDS011;6937;56.096;12.664;2023-07-16T05:28:14;3.05;;;1.38;;
13731;SDS011;6937;56.096;12.664;2023-07-16T05:30:40;4.28;;;1.52;;
13731;SDS011;6937;56.096;12.664;2023-07-16T05:33:05;3.35;;;1.42;;
13731;SDS011;6937;56.096;12.664;2023-07-16T05:35:30;3.30;;;1.30;;
13731;SDS011;6937;56.096;12.664;2023-07-16T05:37:56;3.03;;;1.40;;
13731;SDS011;6937;56.096;12.664;2023-07-16T05:40:21;5.40;;;1.77;;
13731;SDS011;6937;56.096;12.664;2023-07-16T05:42:46;3.85;;;1.60;;
13731;SDS011;6937;56.096;12.664;2023-07-16T05:45:12;2.53;;;1.40;;
13731;SDS011;6937;56.096;12.664;2023-07-16T05:47:37;2.95;;;1.50;;
13731;SDS011;6937;56.096;12.664;2023-07-16T05:50:02;4.00;;;1.50;;
13731;SDS011;6937;56.096;12.664;2023-07-16T05:52:28;2.75;;;1.77;;
13731;SDS011;6937;56.096;12.664;2023-07-16T05:54:53;3.78;;;2.08;;
13731;SDS011;6937;56.096;12.664;2023-07-16T05:57:19;5.18;;;1.60;;
13731;SDS011;6937;56.096;12.664;2023-07-16T05:59:44;3.08;;;1.20;;
13731;SDS011;6937;56.096;12.664;2023-07-16T06:02:09;3.90;;;1.48;;
13731;SDS011;6937;56.096;12.664;2023-07-16T06:04:35;3.35;;;1.85;;
13731;SDS011;6937;56.096;12.664;2023-07-16T06:07:00;3.30;;;1.52;;
13731;SDS011;6937;56.096;12.664;2023-07-16T06:09:25;2.35;;;1.48;;
13731;SDS011;6937;56.096;12.664;2023-07-16T06:11:51;5.25;;;1.63;;
13731;SDS011;6937;56.096;12.664;2023-07-16T06:14:16;2.63;;;1.35;;
13731;SDS011;6937;56.096;12.664;2023-07-16T06:16:41;3.38;;;1.55;;
13731;SDS011;6937;56.096;12.664;2023-07-16T06:19:07;3.63;;;1.80;;
13731;SDS011;6937;56.096;12.664;2023-07-16T06:21:32;4.38;;;1.58;;
13731;SDS011;6937;56.096;12.664;2023-07-16T06:23:58;3.58;;;1.55;;
13731;SDS011;6937;56.096;12.664;2023-07-16T06:26:23;5.28;;;1.70;;
13731;SDS011;6937;56.096;12.664;2023-07-16T06:28:49;2.83;;;1.30;;
13731;SDS011;6937;56.096;12.664;2023-07-16T06:31:15;4.63;;;1.58;;
13731;SDS011;6937;56.096;12.664;2023-07-16T06:33:41;9.35;;;2.17;;
13731;SDS011;6937;56.096;12.664;2023-07-16T06:36:06;3.78;;;1.55;;
13731;SDS011;6937;56.096;12.664;2023-07-16T06:38:32;4.72;;;1.98;;
13731;SDS011;6937;56.096;12.664;2023-07-16T06:40:57;3.83;;;2.33;;
13731;SDS011;6937;56.096;12.664;2023-07-16T06:43:23;3.70;;;1.80;;
13731;SDS011;6937;56.096;12.664;2023-07-16T06:45:49;3.28;;;1.52;;
13731;SDS011;6937;56.096;12.664;2023-07-16T06:48:16;5.35;;;2.00;;
13731;SDS011;6937;56.096;12.664;2023-07-16T06:50:41;5.00;;;2.05;;
13731;SDS011;6937;56.096;12.664;2023-07-16T06:53:07;5.75;;;2.28;;
13731;SDS011;6937;56.096;12.664;2023-07-16T06:55:32;5.85;;;2.28;;
13731;SDS011;6937;56.096;12.664;2023-07-16T06:57:57;5.43;;;2.28;;
13731;SDS011;6937;56.096;12.664;2023-07-16T07:00:23;4.78;;;2.13;;
13731;SDS011;6937;56.096;12.664;2023-07-16T07:02:48;3.78;;;2.00;;
13731;SDS011;6937;56.096;12.664;2023-07-16T07:05:13;4.55;;;2.00;;
13731;SDS011;6937;56.096;12.664;2023-07-16T07:07:39;5.53;;;2.10;;
13731;SDS011;6937;56.096;12.664;2023-07-16T07:10:04;4.60;;;2.22;;
13731;SDS011;6937;56.096;12.664;2023-07-16T07:12:30;3.55;;;2.25;;
13731;SDS011;6937;56.096;12.664;2023-07-16T07:15:02;4.93;;;2.60;;
13731;SDS011;6937;56.096;12.664;2023-07-16T07:17:28;5.60;;;2.10;;
13731;SDS011;6937;56.096;12.664;2023-07-16T07:19:54;3.72;;;2.08;;
13731;SDS011;6937;56.096;12.664;2023-07-16T07:22:19;5.20;;;2.30;;
13731;SDS011;6937;56.096;12.664;2023-07-16T07:24:44;6.30;;;2.58;;
13731;SDS011;6937;56.096;12.664;2023-07-16T07:27:10;6.55;;;2.45;;
13731;SDS011;6937;56.096;12.664;2023-07-16T07:29:35;4.97;;;2.20;;
13731;SDS011;6937;56.096;12.664;2023-07-16T07:32:00;4.28;;;2.40;;
13731;SDS011;6937;56.096;12.664;2023-07-16T07:34:26;4.57;;;2.28;;
13731;SDS011;6937;56.096;12.664;2023-07-16T07:36:51;5.78;;;2.20;;
13731;SDS011;6937;56.096;12.664;2023-07-16T07:39:16;5.22;;;2.53;;
13731;SDS011;6937;56.096;12.664;2023-07-16T07:41:42;5.20;;;3.00;;
13731;SDS011;6937;56.096;12.664;2023-07-16T07:44:08;7.70;;;2.65;;
13731;SDS011;6937;56.096;12.664;2023-07-16T07:46:33;5.13;;;2.83;;
13731;SDS011;6937;56.096;12.664;2023-07-16T07:48:58;6.47;;;3.00;;
13731;SDS011;6937;56.096;12.664;2023-07-16T07:51:24;6.38;;;2.78;;
13731;SDS011;6937;56.096;12.664;2023-07-16T07:53:49;5.13;;;3.05;;
13731;SDS011;6937;56.096;12.664;2023-07-16T07:56:14;6.78;;;3.05;;
13731;SDS011;6937;56.096;12.664;2023-07-16T07:58:40;6.38;;;2.58;;
13731;SDS011;6937;56.096;12.664;2023-07-16T08:01:05;5.20;;;2.70;;
13731;SDS011;6937;56.096;12.664;2023-07-16T08:03:31;8.57;;;3.13;;
13731;SDS011;6937;56.096;12.664;2023-07-16T08:05:57;5.28;;;2.97;;
13731;SDS011;6937;56.096;12.664;2023-07-16T08:08:22;4.63;;;2.67;;
13731;SDS011;6937;56.096;12.664;2023-07-16T08:10:48;5.30;;;2.38;;
13731;SDS011;6937;56.096;12.664;2023-07-16T08:13:13;6.03;;;3.13;;
13731;SDS011;6937;56.096;12.664;2023-07-16T08:15:38;5.00;;;3.17;;
13731;SDS011;6937;56.096;12.664;2023-07-16T08:18:04;5.70;;;2.85;;
13731;SDS011;6937;56.096;12.664;2023-07-16T08:20:29;6.57;;;2.90;;
13731;SDS011;6937;56.096;12.664;2023-07-16T08:22:55;6.93;;;2.97;;
13731;SDS011;6937;56.096;12.664;2023-07-16T08:25:20;4.63;;;2.75;;
13731;SDS011;6937;56.096;12.664;2023-07-16T08:27:46;6.30;;;3.17;;
13731;SDS011;6937;56.096;12.664;2023-07-16T08:30:11;5.97;;;2.95;;
13731;SDS011;6937;56.096;12.664;2023-07-16T08:32:37;5.70;;;2.40;;
13731;SDS011;6937;56.096;12.664;2023-07-16T08:35:02;6.10;;;2.95;;
13731;SDS011;6937;56.096;12.664;2023-07-16T08:37:28;6.78;;;2.95;;
13731;SDS011;6937;56.096;12.664;2023-07-16T08:39:54;6.32;;;2.80;;
13731;SDS011;6937;56.096;12.664;2023-07-16T08:42:19;5.75;;;2.60;;
13731;SDS011;6937;56.096;12.664;2023-07-16T08:44:45;8.00;;;2.70;;
13731;SDS011;6937;56.096;12.664;2023-07-16T08:47:13;7.88;;;2.78;;
13731;SDS011;6937;56.096;12.664;2023-07-16T08:49:39;6.43;;;2.30;;
13731;SDS011;6937;56.096;12.664;2023-07-16T08:52:05;7.47;;;2.80;;
13731;SDS011;6937;56.096;12.664;2023-07-16T08:54:32;4.32;;;2.80;;
13731;SDS011;6937;56.096;12.664;2023-07-16T08:56:58;5.82;;;3.00;;
13731;SDS011;6937;56.096;12.664;2023-07-16T08:59:24;7.72;;;2.83;;
13731;SDS011;6937;56.096;12.664;2023-07-16T09:01:51;4.78;;;2.63;;
13731;SDS011;6937;56.096;12.664;2023-07-16T09:04:17;6.03;;;2.63;;
13731;SDS011;6937;56.096;12.664;2023-07-16T09:06:42;5.45;;;2.42;;
13731;SDS011;6937;56.096;12.664;2023-07-16T09:09:08;6.47;;;2.67;;
13731;SDS011;6937;56.096;12.664;2023-07-16T09:11:47;4.60;;;2.63;;
13731;SDS011;6937;56.096;12.664;2023-07-16T09:14:15;5.35;;;2.42;;
13731;SDS011;6937;56.096;12.664;2023-07-16T09:16:48;6.15;;;2.60;;
13731;SDS011;6937;56.096;12.664;2023-07-16T09:19:14;5.75;;;2.35;;
13731;SDS011;6937;56.096;12.664;2023-07-16T09:21:42;4.45;;;2.47;;
13731;SDS011;6937;56.096;12.664;2023-07-16T09:24:08;4.20;;;2.60;;
13731;SDS011;6937;56.096;12.664;2023-07-16T09:26:36;5.82;;;2.80;;
13731;SDS011;6937;56.096;12.664;2023-07-16T09:29:05;8.45;;;2.40;;
13731;SDS011;6937;56.096;12.664;2023-07-16T09:31:32;4.18;;;2.40;;
13731;SDS011;6937;56.096;12.664;2023-07-16T09:33:57;5.60;;;2.28;;
13731;SDS011;6937;56.096;12.664;2023-07-16T09:36:26;5.45;;;2.72;;
13731;SDS011;6937;56.096;12.664;2023-07-16T09:38:53;6.75;;;2.42;;
13731;SDS011;6937;56.096;12.664;2023-07-16T09:41:20;5.18;;;2.63;;
13731;SDS011;6937;56.096;12.664;2023-07-16T09:43:46;2.97;;;2.38;;
13731;SDS011;6937;56.096;12.664;2023-07-16T09:46:12;2.78;;;1.95;;
13731;SDS011;6937;56.096;12.664;2023-07-16T09:48:37;4.68;;;2.10;;
13731;SDS011;6937;56.096;12.664;2023-07-16T09:51:02;4.57;;;2.20;;
13731;SDS011;6937;56.096;12.664;2023-07-16T09:53:30;4.40;;;2.10;;
13731;SDS011;6937;56.096;12.664;2023-07-16T09:55:57;3.42;;;2.30;;
13731;SDS011;6937;56.096;12.664;2023-07-16T09:58:24;4.63;;;2.00;;
13731;SDS011;6937;56.096;12.664;2023-07-16T10:00:51;4.43;;;2.15;;
13731;SDS011;6937;56.096;12.664;2023-07-16T10:03:17;4.97;;;2.10;;
13731;SDS011;6937;56.096;12.664;2023-07-16T10:05:43;5.78;;;2.45;;
13731;SDS011;6937;56.096;12.664;2023-07-16T10:08:15;6.78;;;2.55;;
13731;SDS011;6937;56.096;12.664;2023-07-16T10:10:47;4.82;;;2.22;;
13731;SDS011;6937;56.096;12.664;2023-07-16T10:13:13;5.57;;;1.92;;
13731;SDS011;6937;56.096;12.664;2023-07-16T10:15:39;3.72;;;2.25;;
13731;SDS011;6937;56.096;12.664;2023-07-16T10:18:23;4.95;;;2.40;;
13731;SDS011;6937;56.096;12.664;2023-07-16T10:20:49;4.75;;;2.13;;
13731;SDS011;6937;56.096;12.664;2023-07-16T10:23:17;3.80;;;2.33;;
13731;SDS011;6937;56.096;12.664;2023-07-16T10:25:59;5.82;;;2.58;;
13731;SDS011;6937;56.096;12.664;2023-07-16T10:28:26;4.97;;;2.20;;
13731;SDS011;6937;56.096;12.664;2023-07-16T10:30:52;7.03;;;2.60;;
13731;SDS011;6937;56.096;12.664;2023-07-16T10:33:18;7.07;;;2.65;;
13731;SDS011;6937;56.096;12.664;2023-07-16T10:35:44;4.28;;;2.38;;
13731;SDS011;6937;56.096;12.664;2023-07-16T10:38:11;5.90;;;2.30;;
13731;SDS011;6937;56.096;12.664;2023-07-16T10:40:40;4.78;;;2.47;;
13731;SDS011;6937;56.096;12.664;2023-07-16T10:43:06;7.50;;;2.58;;
13731;SDS011;6937;56.096;12.664;2023-07-16T10:45:32;5.20;;;2.33;;
13731;SDS011;6937;56.096;12.664;2023-07-16T10:47:58;5.80;;;2.63;;
13731;SDS011;6937;56.096;12.664;2023-07-16T10:50:23;4.15;;;2.63;;
13731;SDS011;6937;56.096;12.664;2023-07-16T10:52:52;5.07;;;2.40;;
13731;SDS011;6937;56.096;12.664;2023-07-16T10:55:19;7.97;;;2.60;;
13731;SDS011;6937;56.096;12.664;2023-07-16T10:57:46;7.45;;;2.45;;
13731;SDS011;6937;56.096;12.664;2023-07-16T11:00:13;4.60;;;2.35;;
13731;SDS011;6937;56.096;12.664;2023-07-16T11:02:39;6.57;;;2.50;;
13731;SDS011;6937;56.096;12.664;2023-07-16T11:05:05;4.70;;;2.30;;
13731;SDS011;6937;56.096;12.664;2023-07-16T11:07:34;4.57;;;2.20;;
13731;SDS011;6937;56.096;12.664;2023-07-16T11:09:59;3.78;;;2.53;;
13731;SDS011;6937;56.096;12.664;2023-07-16T11:12:27;5.22;;;2.40;;
13731;SDS011;6937;56.096;12.664;2023-07-16T11:14:54;4.05;;;2.00;;
13731;SDS011;6937;56.096;12.664;2023-07-16T11:17:20;5.13;;;2.45;;
13731;SDS011;6937;56.096;12.664;2023-07-16T11:19:48;5.28;;;1.95;;
13731;SDS011;6937;56.096;12.664;2023-07-16T11:22:15;6.00;;;2.60;;
13731;SDS011;6937;56.096;12.664;2023-07-16T11:24:42;4.90;;;2.13;;
13731;SDS011;6937;56.096;12.664;2023-07-16T11:29:45;5.30;;;2.22;;
13731;SDS011;6937;56.096;12.664;2023-07-16T11:32:12;5.72;;;2.42;;
13731;SDS011;6937;56.096;12.664;2023-07-16T11:34:38;2.65;;;2.10;;
13731;SDS011;6937;56.096;12.664;2023-07-16T11:37:16;5.63;;;2.40;;
13731;SDS011;6937;56.096;12.664;2023-07-16T11:39:41;7.97;;;2.45;;
13731;SDS011;6937;56.096;12.664;2023-07-16T11:42:07;4.25;;;2.20;;
13731;SDS011;6937;56.096;12.664;2023-07-16T11:44:33;5.22;;;2.60;;
13731;SDS011;6937;56.096;12.664;2023-07-16T11:46:59;3.92;;;2.10;;
13731;SDS011;6937;56.096;12.664;2023-07-16T11:49:25;4.40;;;2.30;;
13731;SDS011;6937;56.096;12.664;2023-07-16T11:51:50;5.40;;;2.45;;
13731;SDS011;6937;56.096;12.664;2023-07-16T11:54:16;5.80;;;3.05;;
13731;SDS011;6937;56.096;12.664;2023-07-16T11:56:41;5.25;;;2.60;;
13731;SDS011;6937;56.096;12.664;2023-07-16T11:59:06;5.75;;;2.80;;
13731;SDS011;6937;56.096;12.664;2023-07-16T12:01:32;4.55;;;2.58;;
13731;SDS011;6937;56.096;12.664;2023-07-16T12:03:57;4.32;;;2.47;;
13731;SDS011;6937;56.096;12.664;2023-07-16T12:06:22;6.20;;;2.75;;
13731;SDS011;6937;56.096;12.664;2023-07-16T12:08:48;7.53;;;2.80;;
13731;SDS011;6937;56.096;12.664;2023-07-16T12:11:13;6.03;;;2.67;;
13731;SDS011;6937;56.096;12.664;2023-07-16T12:13:38;3.70;;;2.50;;
13731;SDS011;6937;56.096;12.664;2023-07-16T12:16:04;3.47;;;2.50;;
13731;SDS011;6937;56.096;12.664;2023-07-16T12:18:29;4.45;;;2.70;;
13731;SDS011;6937;56.096;12.664;2023-07-16T12:20:56;5.57;;;2.67;;
13731;SDS011;6937;56.096;12.664;2023-07-16T12:23:21;5.43;;;2.95;;
13731;SDS011;6937;56.096;12.664;2023-07-16T12:25:47;4.05;;;2.58;;
13731;SDS011;6937;56.096;12.664;2023-07-16T12:28:14;7.65;;;2.80;;
13731;SDS011;6937;56.096;12.664;2023-07-16T12:30:39;4.70;;;2.67;;
13731;SDS011;6937;56.096;12.664;2023-07-16T12:33:05;5.55;;;2.90;;
13731;SDS011;6937;56.096;12.664;2023-07-16T12:35:30;6.43;;;2.80;;
13731;SDS011;6937;56.096;12.664;2023-07-16T12:37:55;5.70;;;3.20;;
13731;SDS011;6937;56.096;12.664;2023-07-16T12:40:23;5.95;;;2.97;;
13731;SDS011;6937;56.096;12.664;2023-07-16T12:42:49;5.78;;;3.38;;
13731;SDS011;6937;56.096;12.664;2023-07-16T12:45:14;4.28;;;2.95;;
13731;SDS011;6937;56.096;12.664;2023-07-16T12:47:39;5.07;;;2.88;;
13731;SDS011;6937;56.096;12.664;2023-07-16T12:50:05;4.80;;;3.03;;
13731;SDS011;6937;56.096;12.664;2023-07-16T12:52:31;5.05;;;3.15;;
13731;SDS011;6937;56.096;12.664;2023-07-16T12:54:56;6.60;;;3.10;;
13731;SDS011;6937;56.096;12.664;2023-07-16T12:57:21;3.92;;;2.80;;
13731;SDS011;6937;56.096;12.664;2023-07-16T12:59:47;5.95;;;2.83;;
13731;SDS011;6937;56.096;12.664;2023-07-16T13:02:12;5.35;;;3.08;;
13731;SDS011;6937;56.096;12.664;2023-07-16T13:04:37;4.70;;;2.60;;
13731;SDS011;6937;56.096;12.664;2023-07-16T13:07:03;4.05;;;2.50;;
13731;SDS011;6937;56.096;12.664;2023-07-16T13:09:28;8.20;;;3.10;;
13731;SDS011;6937;56.096;12.664;2023-07-16T13:11:54;7.65;;;3.25;;
13731;SDS011;6937;56.096;12.664;2023-07-16T13:14:19;3.90;;;2.88;;
13731;SDS011;6937;56.096;12.664;2023-07-16T13:16:44;5.50;;;3.30;;
13731;SDS011;6937;56.096;12.664;2023-07-16T13:19:10;6.35;;;2.95;;
13731;SDS011;6937;56.096;12.664;2023-07-16T13:21:35;5.68;;;3.00;;
13731;SDS011;6937;56.096;12.664;2023-07-16T13:24:00;5.60;;;2.88;;
13731;SDS011;6937;56.096;12.664;2023-07-16T13:26:26;4.32;;;2.70;;
13731;SDS011;6937;56.096;12.664;2023-07-16T13:28:51;4.65;;;2.63;;
13731;SDS011;6937;56.096;12.664;2023-07-16T13:31:17;8.63;;;2.50;;
13731;SDS011;6937;56.096;12.664;2023-07-16T13:33:43;6.47;;;3.50;;
13731;SDS011;6937;56.096;12.664;2023-07-16T13:36:08;4.97;;;3.00;;
13731;SDS011;6937;56.096;12.664;2023-07-16T13:38:33;5.70;;;2.40;;
13731;SDS011;6937;56.096;12.664;2023-07-16T13:40:59;3.13;;;2.20;;
13731;SDS011;6937;56.096;12.664;2023-07-16T13:43:24;4.20;;;2.20;;
13731;SDS011;6937;56.096;12.664;2023-07-16T13:45:49;5.00;;;2.67;;
13731;SDS011;6937;56.096;12.664;2023-07-16T13:48:15;4.88;;;2.40;;
13731;SDS011;6937;56.096;12.664;2023-07-16T13:50:40;5.90;;;2.35;;
13731;SDS011;6937;56.096;12.664;2023-07-16T13:53:06;4.53;;;2.30;;
13731;SDS011;6937;56.096;12.664;2023-07-16T13:55:31;3.13;;;2.10;;
13731;SDS011;6937;56.096;12.664;2023-07-16T13:57:56;6.68;;;2.58;;
13731;SDS011;6937;56.096;12.664;2023-07-16T14:00:22;3.47;;;2.05;;
13731;SDS011;6937;56.096;12.664;2023-07-16T14:02:48;3.38;;;2.10;;
13731;SDS011;6937;56.096;12.664;2023-07-16T14:05:13;5.15;;;2.25;;
13731;SDS011;6937;56.096;12.664;2023-07-16T14:07:39;7.45;;;2.35;;
13731;SDS011;6937;56.096;12.664;2023-07-16T14:10:04;3.88;;;2.15;;
13731;SDS011;6937;56.096;12.664;2023-07-16T14:12:30;5.97;;;2.20;;
13731;SDS011;6937;56.096;12.664;2023-07-16T14:14:55;4.03;;;2.35;;
13731;SDS011;6937;56.096;12.664;2023-07-16T14:17:21;6.93;;;2.47;;
13731;SDS011;6937;56.096;12.664;2023-07-16T14:19:46;4.90;;;2.30;;
13731;SDS011;6937;56.096;12.664;2023-07-16T14:22:11;7.07;;;2.22;;
13731;SDS011;6937;56.096;12.664;2023-07-16T14:24:38;4.00;;;1.95;;
13731;SDS011;6937;56.096;12.664;2023-07-16T14:27:04;5.35;;;2.33;;
13731;SDS011;6937;56.096;12.664;2023-07-16T14:29:31;6.38;;;2.42;;
13731;SDS011;6937;56.096;12.664;2023-07-16T14:31:57;6.88;;;2.40;;
13731;SDS011;6937;56.096;12.664;2023-07-16T14:34:22;4.90;;;2.55;;
13731;SDS011;6937;56.096;12.664;2023-07-16T14:36:48;7.20;;;3.03;;
13731;SDS011;6937;56.096;12.664;2023-07-16T14:39:13;8.90;;;2.92;;
13731;SDS011;6937;56.096;12.664;2023-07-16T14:41:38;7.15;;;2.60;;
13731;SDS011;6937;56.096;12.664;2023-07-16T14:44:04;5.43;;;2.72;;
13731;SDS011;6937;56.096;12.664;2023-07-16T14:46:30;8.27;;;3.45;;
13731;SDS011;6937;56.096;12.664;2023-07-16T14:48:55;5.90;;;2.90;;
13731;SDS011;6937;56.096;12.664;2023-07-16T14:51:23;9.50;;;2.97;;